Time;durP1;ratioP1;P1;durP2;ratioP2;P2;SDS_P1;SDS_P2;PMS_P1;PMS_P2;Temp;Humidity;BMP_temperature;BMP_pressure;BME280_temperature;BME280_humidity;BME280_pressure;Samples;Min_cycle;Max_cycle;Signal;HPM_P1;HPM_P2
2023/02/07 00:01:09;;;;;;;33.50;18.10;;;;;;;-1.52;100.00;103794.19;5085669;28;20020;-75
2023/02/07 00:03:35;;;;;;;34.40;17.88;;;;;;;-1.50;100.00;103789.13;5084942;28;20016;-76
2023/02/07 00:06:09;;;;;;;33.92;17.60;;;;;;;-1.51;100.00;103789.91;5084915;28;20070;-75
2023/02/07 00:08:35;;;;;;;33.80;17.00;;;;;;;-1.59;100.00;103787.47;5085166;28;20066;-75
2023/02/07 00:11:15;;;;;;;34.08;16.92;;;;;;;-1.65;100.00;103793.72;5084713;28;20123;-75
2023/02/07 00:13:44;;;;;;;33.65;16.13;;;;;;;-1.63;100.00;103793.09;5084085;28;20020;-76
2023/02/07 00:16:10;;;;;;;32.85;16.92;;;;;;;-1.69;100.00;103787.31;5085771;28;20373;-75
2023/02/07 00:18:36;;;;;;;33.00;17.15;;;;;;;-1.75;100.00;103789.25;5084596;28;20041;-75
2023/02/07 00:21:09;;;;;;;31.92;17.05;;;;;;;-1.82;100.00;103791.97;5084247;28;20395;-75
2023/02/07 00:23:36;;;;;;;31.50;16.50;;;;;;;-1.87;100.00;103791.53;5084739;28;20520;-75
2023/02/07 00:26:02;;;;;;;32.53;17.05;;;;;;;-1.90;100.00;103786.03;5084177;28;20028;-75
2023/02/07 00:28:28;;;;;;;34.08;17.45;;;;;;;-2.00;100.00;103794.53;5085531;28;20024;-75
2023/02/07 00:31:05;;;;;;;32.15;16.63;;;;;;;-1.93;100.00;103796.09;5083429;28;20021;-75
2023/02/07 00:33:30;;;;;;;32.13;16.92;;;;;;;-1.97;100.00;103809.50;5085042;28;20066;-75
2023/02/07 00:35:57;;;;;;;30.23;17.00;;;;;;;-1.95;100.00;103795.94;5081943;28;20479;-75
2023/02/07 00:38:23;;;;;;;30.48;16.13;;;;;;;-2.14;100.00;103789.59;5086046;28;20028;-75
2023/02/07 00:40:48;;;;;;;30.88;16.63;;;;;;;-2.18;100.00;103793.56;5082946;28;20029;-75
2023/02/07 00:43:14;;;;;;;31.02;16.52;;;;;;;-2.21;100.00;103788.06;5085573;28;20119;-75
2023/02/07 00:45:39;;;;;;;29.08;15.10;;;;;;;-2.31;100.00;103788.78;5083602;28;20484;-75
2023/02/07 00:48:04;;;;;;;30.35;16.73;;;;;;;-2.25;100.00;103788.50;5084362;28;20052;-75
2023/02/07 00:50:30;;;;;;;30.17;16.45;;;;;;;-2.24;100.00;103797.19;5084794;28;20051;-75
2023/02/07 00:52:55;;;;;;;31.15;16.85;;;;;;;-2.26;100.00;103783.16;5082809;28;20040;-74
2023/02/07 00:55:21;;;;;;;31.45;16.35;;;;;;;-2.30;100.00;103781.91;5086047;28;20107;-75
2023/02/07 00:57:46;;;;;;;32.17;17.13;;;;;;;-2.38;100.00;103772.44;5082455;28;20126;-75
2023/02/07 01:00:12;;;;;;;34.60;17.40;;;;;;;-2.36;100.00;103791.66;5085135;28;20039;-75
2023/02/07 01:02:37;;;;;;;33.13;17.25;;;;;;;-2.41;100.00;103792.88;5083501;28;20368;-75
2023/02/07 01:05:03;;;;;;;32.70;17.38;;;;;;;-2.36;100.00;103783.88;5083543;28;20058;-75
2023/02/07 01:07:28;;;;;;;33.15;16.85;;;;;;;-2.34;100.00;103778.09;5084966;28;20538;-74
2023/02/07 01:09:53;;;;;;;42.15;20.30;;;;;;;-2.32;100.00;103784.34;5082417;28;20060;-75
2023/02/07 01:12:19;;;;;;;44.97;21.10;;;;;;;-2.41;100.00;103778.22;5085555;28;20406;-75
2023/02/07 01:14:44;;;;;;;37.05;20.08;;;;;;;-2.44;100.00;103764.06;5082569;28;20391;-75
2023/02/07 01:17:09;;;;;;;39.08;19.17;;;;;;;-2.54;100.00;103770.84;5084178;28;20098;-75
2023/02/07 01:19:35;;;;;;;35.97;18.83;;;;;;;-2.58;100.00;103786.81;5084059;28;20089;-74
2023/02/07 01:22:00;;;;;;;35.47;20.05;;;;;;;-2.59;100.00;103790.19;5089146;28;20040;-91
2023/02/07 01:24:25;;;;;;;37.58;19.58;;;;;;;-2.68;100.00;103787.56;5092757;28;20039;-92
2023/02/07 01:26:51;;;;;;;37.83;20.02;;;;;;;-2.70;100.00;103782.97;5089438;28;20107;-86
2023/02/07 01:29:16;;;;;;;38.33;19.60;;;;;;;-2.78;100.00;103786.41;5093008;28;20493;-87
2023/02/07 01:31:42;;;;;;;37.03;19.67;;;;;;;-2.71;100.00;103784.66;5082727;28;20385;-93
2023/02/07 01:34:10;;;;;;;38.47;19.95;;;;;;;-2.83;100.00;103792.00;5083773;28;20045;-91
2023/02/07 01:36:36;;;;;;;37.67;20.40;;;;;;;-2.85;100.00;103783.16;5083612;28;20177;-93
2023/02/07 01:39:02;;;;;;;36.60;19.20;;;;;;;-2.88;100.00;103772.50;5082832;28;20029;-76
2023/02/07 01:41:28;;;;;;;36.00;19.23;;;;;;;-2.98;100.00;103780.94;5083356;28;20119;-76
2023/02/07 01:44:01;;;;;;;32.70;18.17;;;;;;;-3.05;100.00;103794.00;5081260;28;20115;-76
2023/02/07 01:46:28;;;;;;;31.63;18.90;;;;;;;-3.03;100.00;103788.97;5084334;28;20031;-84
2023/02/07 01:48:57;;;;;;;32.65;19.10;;;;;;;-3.01;100.00;103779.72;5081538;28;20025;-76
2023/02/07 01:51:23;;;;;;;32.25;18.80;;;;;;;-2.98;100.00;103775.78;5085115;28;20023;-76
2023/02/07 01:53:52;;;;;;;30.10;18.85;;;;;;;-2.93;100.00;103784.03;5081387;28;20497;-76
2023/02/07 01:56:18;;;;;;;31.15;19.02;;;;;;;-2.95;100.00;103788.13;5084630;28;20024;-77
2023/02/07 01:58:43;;;;;;;33.65;19.75;;;;;;;-2.96;100.00;103780.22;5082144;28;20039;-77
2023/02/07 02:01:15;;;;;;;33.50;19.88;;;;;;;-3.01;100.00;103771.97;5083442;28;20187;-76
2023/02/07 02:03:45;;;;;;;34.08;19.60;;;;;;;-3.02;100.00;103783.97;5082415;28;20020;-93
2023/02/07 02:06:12;;;;;;;33.88;19.77;;;;;;;-3.01;100.00;103779.72;5083824;28;20078;-93
2023/02/07 02:08:38;;;;;;;33.22;20.08;;;;;;;-3.09;100.00;103773.72;5082544;28;20063;-91
2023/02/07 02:11:23;;;;;;;34.20;19.95;;;;;;;-3.13;100.00;103774.16;5082883;28;20083;-77
2023/02/07 02:13:54;;;;;;;33.47;19.52;;;;;;;-3.05;100.00;103770.69;5081357;28;20437;-76
2023/02/07 02:16:37;;;;;;;35.15;19.88;;;;;;;-3.10;100.00;103776.13;5081021;28;20086;-74
2023/02/07 02:19:08;;;;;;;;;;;;;;;-3.12;100.00;103786.31;5082753;28;20052;-75
2023/02/07 02:21:39;;;;;;;36.55;19.63;;;;;;;-3.16;100.00;103785.09;5083251;28;20420;-74
2023/02/07 02:24:19;;;;;;;37.35;20.33;;;;;;;-3.24;100.00;103791.09;5081154;28;20024;-75
2023/02/07 02:26:59;;;;;;;36.47;19.75;;;;;;;-3.23;100.00;103798.13;5081568;28;20475;-75
2023/02/07 02:29:33;;;;;;;34.88;19.38;;;;;;;-3.28;100.00;103794.13;5081115;28;20035;-75
2023/02/07 02:32:11;;;;;;;33.85;18.83;;;;;;;-3.25;100.00;103799.63;5083359;28;20127;-75
2023/02/07 02:35:11;;;;;;;37.53;20.10;;;;;;;-3.18;100.00;103799.53;5082821;28;20036;-75
2023/02/07 02:37:39;;;;;;;38.22;19.80;;;;;;;-3.28;100.00;103799.28;5058575;28;20127;-75
2023/02/07 02:40:14;;;;;;;39.53;20.50;;;;;;;-3.28;100.00;103783.75;5073826;28;20139;-74
2023/02/07 02:43:02;;;;;;;39.85;20.10;;;;;;;-3.33;100.00;103791.03;5083192;28;20032;-75
2023/02/07 02:45:33;;;;;;;47.95;21.27;;;;;;;-3.21;100.00;103791.44;5081067;28;20078;-75
2023/02/07 02:48:01;;;;;;;66.70;23.80;;;;;;;-3.16;100.00;103790.28;5083450;28;20032;-75
2023/02/07 02:50:28;;;;;;;66.03;23.92;;;;;;;-3.22;100.00;103788.69;5080964;28;20036;-75
2023/02/07 02:52:54;;;;;;;71.22;24.83;;;;;;;-3.23;100.00;103787.78;5084421;28;20039;-74
2023/02/07 02:55:38;;;;;;;64.32;25.33;;;;;;;-3.24;100.00;103790.19;5081227;28;20059;-75
2023/02/07 02:58:25;;;;;;;54.40;24.58;;;;;;;-3.14;100.00;103792.13;5086009;28;20036;-75
2023/02/07 03:01:20;;;;;;;48.03;23.98;;;;;;;-3.10;100.00;103783.91;5084579;28;20036;-75
2023/02/07 03:04:13;;;;;;;57.80;24.50;;;;;;;-3.13;100.00;103788.75;5087656;28;20032;-75
2023/02/07 03:06:45;;;;;;;55.63;25.30;;;;;;;-3.12;100.00;103780.25;5087486;28;20413;-75
2023/02/07 03:09:22;;;;;;;55.85;25.48;;;;;;;-3.06;100.00;103775.72;5086859;28;20039;-75
2023/02/07 03:11:57;;;;;;;68.03;26.50;;;;;;;-3.02;100.00;103783.97;5084454;28;20027;-76
2023/02/07 03:14:53;;;;;;;68.30;26.10;;;;;;;-3.00;100.00;103777.28;5084391;28;20029;-75
2023/02/07 03:17:35;;;;;;;67.50;27.92;;;;;;;-2.94;100.00;103782.22;5087622;28;20035;-75
2023/02/07 03:20:25;;;;;;;62.35;28.25;;;;;;;-2.86;100.00;103793.38;5087047;28;20058;-75
2023/02/07 03:22:54;;;;;;;55.30;28.17;;;;;;;-2.71;100.00;103796.66;5084070;28;20103;-76
2023/02/07 03:25:23;;;;;;;72.60;28.70;;;;;;;-2.57;100.00;103787.75;5084363;28;20032;-76
2023/02/07 03:27:49;;;;;;;107.00;29.48;;;;;;;-2.56;100.00;103793.09;5087343;28;20072;-75
2023/02/07 03:30:17;;;;;;;75.35;31.33;;;;;;;-2.42;100.00;103778.97;5084854;28;20031;-76
2023/02/07 03:32:48;;;;;;;62.38;30.73;;;;;;;-2.34;100.00;103790.16;5086238;28;20064;-75
2023/02/07 03:35:36;;;;;;;83.03;31.83;;;;;;;-2.32;100.00;103784.34;5084682;28;20105;-76
2023/02/07 03:38:03;;;;;;;68.20;31.13;;;;;;;-2.24;100.00;103790.34;5084787;28;20367;-75
2023/02/07 03:40:34;;;;;;;87.43;33.05;;;;;;;-2.18;100.00;103782.28;5086959;28;20178;-75
2023/02/07 03:43:15;;;;;;;65.57;34.45;;;;;;;-2.06;100.00;103782.63;5084498;28;20033;-76
2023/02/07 03:45:40;;;;;;;95.00;34.83;;;;;;;-2.02;100.00;103779.59;5085257;28;20390;-76
2023/02/07 03:48:06;;;;;;;72.50;35.65;;;;;;;-1.95;100.00;103776.88;5085142;28;20037;-75
2023/02/07 03:50:31;;;;;;;75.97;36.47;;;;;;;-1.97;100.00;103770.59;5086284;28;20050;-75
2023/02/07 03:52:56;;;;;;;69.22;36.30;;;;;;;-1.90;100.00;103769.56;5083885;28;20535;-76
2023/02/07 03:55:22;;;;;;;87.70;38.05;;;;;;;-1.90;100.00;103764.38;5087053;28;20024;-75
2023/02/07 03:57:47;;;;;;;76.85;38.65;;;;;;;-1.87;100.00;103773.38;5084057;28;20028;-76
2023/02/07 04:00:14;;;;;;;73.85;36.92;;;;;;;-1.84;100.00;103760.72;5086003;28;20024;-76
2023/02/07 04:02:40;;;;;;;88.72;39.40;;;;;;;-1.88;100.00;103763.75;5084662;28;20387;-75
2023/02/07 04:05:06;;;;;;;70.85;37.78;;;;;;;-1.85;100.00;103760.56;5085080;28;20070;-75
2023/02/07 04:07:31;;;;;;;63.97;37.85;;;;;;;-1.79;100.00;103763.75;5085182;28;20032;-76
2023/02/07 04:09:56;;;;;;;78.32;38.58;;;;;;;-1.76;100.00;103765.00;5083682;28;20032;-75
2023/02/07 04:12:22;;;;;;;87.88;38.05;;;;;;;-1.71;100.00;103775.84;5086780;28;20056;-76
2023/02/07 04:14:47;;;;;;;80.75;38.47;;;;;;;-1.71;100.00;103767.16;5083449;28;20108;-76
2023/02/07 04:17:12;;;;;;;81.30;37.67;;;;;;;-1.73;100.00;103756.63;5085823;28;20028;-75
2023/02/07 04:19:38;;;;;;;97.93;39.05;;;;;;;-1.76;100.00;103767.59;5084788;28;20028;-75
2023/02/07 04:22:03;;;;;;;69.68;37.58;;;;;;;-1.70;100.00;103774.16;5084211;28;20025;-75
2023/02/07 04:24:30;;;;;;;80.57;37.78;;;;;;;-1.73;100.00;103772.19;5086293;28;20032;-76
2023/02/07 04:26:57;;;;;;;69.50;37.97;;;;;;;-1.67;100.00;103777.09;5082984;28;20040;-76
2023/02/07 04:29:22;;;;;;;82.22;37.63;;;;;;;-1.68;100.00;103773.56;5086434;28;20092;-76
2023/02/07 04:31:48;;;;;;;89.43;36.95;;;;;;;-1.71;100.00;103765.47;5083566;28;20467;-76
2023/02/07 04:34:13;;;;;;;97.75;36.95;;;;;;;-1.78;100.00;103761.34;5085073;28;20049;-75
2023/02/07 04:36:38;;;;;;;96.75;36.58;;;;;;;-1.79;100.00;103766.34;5084345;28;20040;-76
2023/02/07 04:39:04;;;;;;;86.13;38.13;;;;;;;-1.87;100.00;103764.69;5084136;28;20395;-76
2023/02/07 04:41:29;;;;;;;99.35;37.80;;;;;;;-1.89;100.00;103769.72;5085819;28;20074;-76
2023/02/07 04:43:55;;;;;;;122.07;37.72;;;;;;;-1.98;100.00;103766.16;5082697;28;20021;-76
2023/02/07 04:46:21;;;;;;;117.95;38.20;;;;;;;-2.05;100.00;103763.69;5082729;28;20025;-75
2023/02/07 04:48:47;;;;;;;84.10;37.05;;;;;;;-1.98;100.00;103760.97;5085464;28;20483;-76
2023/02/07 04:51:12;;;;;;;132.65;38.05;;;;;;;-2.10;100.00;103755.47;5083724;28;20024;-75
2023/02/07 04:53:38;;;;;;;108.28;36.95;;;;;;;-2.16;100.00;103753.16;5084367;28;20398;-76
2023/02/07 04:56:03;;;;;;;102.80;38.15;;;;;;;-2.21;100.00;103746.59;5084713;28;20079;-75
2023/02/07 04:58:29;;;;;;;118.07;38.70;;;;;;;-2.30;100.00;103750.81;5083175;28;20099;-75
2023/02/07 05:00:54;;;;;;;91.55;36.78;;;;;;;-2.28;100.00;103750.22;5085797;28;20059;-76
2023/02/07 05:03:20;;;;;;;131.07;40.55;;;;;;;-2.33;100.00;103745.31;5082175;28;20028;-75
2023/02/07 05:05:45;;;;;;;165.52;40.72;;;;;;;-2.38;100.00;103749.13;5085072;28;20032;-75
2023/02/07 05:08:12;;;;;;;162.63;43.25;;;;;;;-2.41;100.00;103757.50;5083405;28;20140;-76
2023/02/07 05:10:38;;;;;;;88.00;39.92;;;;;;;-2.33;100.00;103753.09;5083679;28;20029;-75
2023/02/07 05:13:04;;;;;;;224.18;43.78;;;;;;;-2.41;100.00;103769.53;5084892;28;20109;-75
2023/02/07 05:15:30;;;;;;;134.23;41.95;;;;;;;-2.34;100.00;103756.47;5082467;28;20024;-76
2023/02/07 05:17:55;;;;;;;139.73;40.60;;;;;;;-2.34;100.00;103767.75;5085269;28;20036;-75
2023/02/07 05:20:22;;;;;;;219.80;43.03;;;;;;;-2.42;100.00;103767.69;5081191;28;20054;-76
2023/02/07 05:22:47;;;;;;;123.13;41.15;;;;;;;-2.46;100.00;103769.97;5085064;28;20048;-76
2023/02/07 05:25:13;;;;;;;111.38;40.25;;;;;;;-2.42;100.00;103770.28;5082793;28;20467;-75
2023/02/07 05:27:38;;;;;;;199.68;44.60;;;;;;;-2.49;100.00;103769.66;5082532;28;20036;-76
2023/02/07 05:30:05;;;;;;;130.82;40.05;;;;;;;-2.46;100.00;103769.97;5084056;28;20032;-75
2023/02/07 05:35:15;;;;;;;141.25;39.97;;;;;;;-2.58;100.00;103772.97;5082627;28;20130;-76
2023/02/07 05:37:41;;;;;;;136.45;38.67;;;;;;;-2.61;100.00;103777.81;5084235;28;20483;-75
2023/02/07 05:40:07;;;;;;;115.80;38.13;;;;;;;-2.67;100.00;103788.44;5083503;28;20051;-80
2023/02/07 05:42:32;;;;;;;142.95;38.67;;;;;;;-2.68;100.00;103781.44;5082741;28;20024;-77
2023/02/07 05:44:58;;;;;;;199.23;41.92;;;;;;;-2.73;100.00;103787.81;5084656;28;20028;-77
2023/02/07 05:47:23;;;;;;;156.98;39.67;;;;;;;-2.73;100.00;103786.13;5081355;28;20067;-76
2023/02/07 05:49:48;;;;;;;200.38;42.83;;;;;;;-2.75;100.00;103789.31;5084799;28;20454;-92
2023/02/07 05:52:14;;;;;;;131.20;39.20;;;;;;;-2.79;100.00;103780.31;5082367;28;20059;-83
2023/02/07 05:54:39;;;;;;;138.93;40.33;;;;;;;-2.75;100.00;103794.50;5083452;28;20031;-93
2023/02/07 05:57:04;;;;;;;102.57;38.63;;;;;;;-2.70;100.00;103789.03;5083910;28;20028;-92
2023/02/07 05:59:30;;;;;;;163.32;41.28;;;;;;;-2.78;100.00;103795.09;5082015;28;20020;-92
2023/02/07 06:01:55;;;;;;;106.38;38.30;;;;;;;-2.73;100.00;103799.09;5084830;28;20111;-93
2023/02/07 06:04:20;;;;;;;99.80;37.85;;;;;;;-2.71;100.00;103796.66;5081953;28;20025;-92
2023/02/07 06:06:46;;;;;;;111.32;37.60;;;;;;;-2.69;100.00;103797.75;5083990;28;20393;-92
2023/02/07 06:09:11;;;;;;;128.27;40.25;;;;;;;-2.77;100.00;103796.00;5083198;28;20036;-93
2023/02/07 06:11:37;;;;;;;129.55;41.20;;;;;;;-2.85;100.00;103803.88;5083018;28;20032;-90
2023/02/07 06:14:02;;;;;;;81.28;36.65;;;;;;;-2.81;100.00;103811.22;5083785;28;20024;-93
2023/02/07 06:16:28;;;;;;;119.78;37.08;;;;;;;-2.85;100.00;103809.06;5081748;28;20491;-91
2023/02/07 06:18:53;;;;;;;106.90;36.55;;;;;;;-2.92;100.00;103810.84;5083417;28;20368;-91
2023/02/07 06:21:19;;;;;;;73.85;34.30;;;;;;;-2.93;100.00;103815.09;5081260;28;20469;-75
2023/02/07 06:23:45;;;;;;;89.53;35.08;;;;;;;-2.96;100.00;103822.53;5083751;28;20458;-75
2023/02/07 06:26:11;;;;;;;87.28;34.97;;;;;;;-3.01;100.00;103826.31;5082221;28;20028;-76
2023/02/07 06:28:37;;;;;;;71.10;35.28;;;;;;;-2.93;100.00;103822.84;5082514;28;20025;-75
2023/02/07 06:31:03;;;;;;;114.55;37.90;;;;;;;-2.98;100.00;103814.59;5087392;28;20405;-75
2023/02/07 06:33:28;;;;;;;87.03;37.42;;;;;;;-2.93;100.00;103828.03;5087760;28;20044;-76
2023/02/07 06:35:54;;;;;;;87.00;36.17;;;;;;;-2.94;100.00;103826.22;5091092;28;20455;-76
2023/02/07 06:38:20;;;;;;;142.80;37.10;;;;;;;-3.15;100.00;103822.25;5087278;28;20033;-79
2023/02/07 06:40:47;;;;;;;92.93;34.65;;;;;;;-3.20;100.00;103829.50;5086472;28;20417;-81
2023/02/07 06:43:13;;;;;;;94.93;33.67;;;;;;;-3.23;100.00;103833.41;5090871;28;20069;-79
2023/02/07 06:45:39;;;;;;;106.10;34.05;;;;;;;-3.27;100.00;103841.63;5089165;28;20382;-76
2023/02/07 06:48:05;;;;;;;81.88;33.15;;;;;;;-3.18;100.00;103840.03;5098225;28;20024;-78
2023/02/07 06:50:30;;;;;;;84.15;32.05;;;;;;;-3.27;100.00;103833.88;5097899;28;20039;-78
2023/02/07 06:53:00;;;;;;;101.00;33.85;;;;;;;-3.33;100.00;103837.63;5098276;28;20035;-77
2023/02/07 06:55:30;;;;;;;100.63;34.28;;;;;;;-3.41;100.00;103838.44;5098162;28;20076;-79
2023/02/07 06:57:56;;;;;;;80.25;33.10;;;;;;;-3.42;100.00;103836.63;5096636;28;20074;-77
2023/02/07 07:00:22;;;;;;;99.63;34.17;;;;;;;-3.45;100.00;103836.28;5098357;28;20027;-76
2023/02/07 07:02:48;;;;;;;97.72;34.30;;;;;;;-3.48;100.00;103841.13;5097558;28;20031;-78
2023/02/07 07:05:14;;;;;;;87.55;34.20;;;;;;;-3.43;100.00;103839.03;5098224;28;20387;-78
2023/02/07 07:07:39;;;;;;;78.82;35.92;;;;;;;-3.36;100.00;103837.28;5098420;28;20103;-78
2023/02/07 07:10:06;;;;;;;75.60;34.25;;;;;;;-3.30;100.00;103839.63;5098556;28;20490;-80
2023/02/07 07:12:31;;;;;;;82.40;34.47;;;;;;;-3.34;100.00;103850.38;5098247;28;20107;-80
2023/02/07 07:14:57;;;;;;;82.25;34.20;;;;;;;-3.34;100.00;103852.97;5097734;28;20111;-78
2023/02/07 07:17:22;;;;;;;72.50;34.22;;;;;;;-3.35;100.00;103854.66;5098025;28;20075;-78
2023/02/07 07:19:47;;;;;;;103.13;36.70;;;;;;;-3.34;100.00;103852.97;5098125;28;20035;-79
2023/02/07 07:22:13;;;;;;;92.65;34.88;;;;;;;-3.31;100.00;103854.97;5098508;28;20020;-77
2023/02/07 07:24:38;;;;;;;118.68;36.95;;;;;;;-3.38;100.00;103843.97;5097707;28;20115;-77
2023/02/07 07:27:03;;;;;;;99.57;35.22;;;;;;;-3.39;100.00;103862.81;5097224;28;20070;-76
2023/02/07 07:29:29;;;;;;;88.43;36.13;;;;;;;-3.35;100.00;103861.47;5098391;28;20032;-79
2023/02/07 07:31:54;;;;;;;96.18;34.58;;;;;;;-3.47;100.00;103873.09;5098038;28;20016;-77
2023/02/07 07:34:19;;;;;;;84.25;32.75;;;;;;;-3.50;100.00;103866.81;5097874;28;20445;-78
2023/02/07 07:36:45;;;;;;;87.88;33.30;;;;;;;-3.51;100.00;103862.41;5098101;28;20031;-76
2023/02/07 07:39:11;;;;;;;85.82;32.03;;;;;;;-3.55;100.00;103865.41;5097437;28;20020;-78
2023/02/07 07:41:36;;;;;;;88.45;31.48;;;;;;;-3.62;100.00;103870.66;5078335;28;20039;-78
2023/02/07 07:44:02;;;;;;;79.93;30.80;;;;;;;-3.71;100.00;103869.66;5093770;28;20103;-75
2023/02/07 07:46:28;;;;;;;81.32;31.55;;;;;;;-3.76;100.00;103875.97;5093175;28;20039;-75
2023/02/07 07:48:53;;;;;;;65.22;32.20;;;;;;;-3.78;100.00;103885.22;5094950;28;20028;-76
2023/02/07 07:51:19;;;;;;;63.72;31.63;;;;;;;-3.68;100.00;103882.91;5094417;28;20020;-75
2023/02/07 07:53:44;;;;;;;62.90;31.00;;;;;;;-3.68;100.00;103875.16;5094447;28;20386;-75
2023/02/07 07:56:09;;;;;;;55.30;31.05;;;;;;;-3.65;100.00;103885.84;5092693;28;20045;-79
2023/02/07 07:58:35;;;;;;;61.30;32.45;;;;;;;-3.46;100.00;103893.03;5094576;28;20039;-76
2023/02/07 08:01:00;;;;;;;63.75;32.83;;;;;;;-3.40;100.00;103898.88;5094188;28;20047;-76
2023/02/07 08:03:26;;;;;;;61.75;30.45;;;;;;;-3.37;100.00;103894.94;5093746;28;20024;-77
2023/02/07 08:05:51;;;;;;;56.88;30.13;;;;;;;-3.30;100.00;103893.06;5094561;28;20028;-78
2023/02/07 08:08:18;;;;;;;60.50;28.75;;;;;;;-3.24;100.00;103897.22;5094484;28;20032;-77
2023/02/07 08:10:44;;;;;;;55.63;28.42;;;;;;;-3.19;100.00;103892.53;5094543;28;20081;-76
2023/02/07 08:13:10;;;;;;;64.10;28.73;;;;;;;-3.11;100.00;103906.31;5093897;28;20027;-76
2023/02/07 08:15:36;;;;;;;52.22;28.20;;;;;;;-3.12;100.00;103905.38;5092558;28;20028;-78
2023/02/07 08:18:01;;;;;;;49.17;27.20;;;;;;;-3.06;100.00;103899.97;5093559;28;20023;-78
2023/02/07 08:20:27;;;;;;;49.83;26.38;;;;;;;-3.06;100.00;103899.97;5093787;28;20030;-75
2023/02/07 08:22:52;;;;;;;51.45;26.58;;;;;;;-3.07;100.00;103899.06;5094008;28;20068;-76
2023/02/07 08:25:18;;;;;;;51.28;26.13;;;;;;;-3.15;100.00;103897.28;5094018;28;20115;-78
2023/02/07 08:27:43;;;;;;;47.42;26.20;;;;;;;-3.07;100.00;103885.19;5092015;28;20510;-76
2023/02/07 08:30:11;;;;;;;60.25;26.90;;;;;;;-3.02;100.00;103884.03;5094217;28;20028;-75
2023/02/07 08:32:38;;;;;;;48.17;25.92;;;;;;;-2.99;100.00;103885.25;5093707;28;20056;-76
2023/02/07 08:35:04;;;;;;;52.65;25.67;;;;;;;-3.01;100.00;103883.28;5093588;28;20046;-75
2023/02/07 08:37:30;;;;;;;47.90;26.08;;;;;;;-2.88;100.00;103891.59;5093215;28;20459;-76
2023/02/07 08:39:56;;;;;;;49.65;25.70;;;;;;;-2.88;100.00;103886.44;5093028;28;20081;-76
2023/02/07 08:42:23;;;;;;;56.05;26.52;;;;;;;-2.79;100.00;103890.75;5090325;28;20538;-75
2023/02/07 08:44:49;;;;;;;51.92;26.63;;;;;;;-2.77;100.00;103879.78;5093837;28;20505;-76
2023/02/07 08:47:16;;;;;;;49.55;26.20;;;;;;;-2.61;100.00;103892.72;5092518;28;20032;-75
2023/02/07 08:49:41;;;;;;;43.60;26.23;;;;;;;-2.62;100.00;103885.72;5093778;28;20028;-75
2023/02/07 08:52:07;;;;;;;44.05;25.85;;;;;;;-2.63;100.00;103879.59;5091390;28;20028;-75
2023/02/07 08:54:33;;;;;;;42.50;26.05;;;;;;;-2.72;100.00;103880.28;5083645;28;20079;-76
2023/02/07 08:56:58;;;;;;;38.95;25.38;;;;;;;-2.53;100.00;103886.69;5085137;28;20055;-75
2023/02/07 08:59:24;;;;;;;39.53;25.70;;;;;;;-2.46;100.00;103889.16;5082691;28;20116;-76
2023/02/07 09:01:49;;;;;;;38.95;26.52;;;;;;;-2.16;100.00;103882.78;5086023;28;20035;-76
2023/02/07 09:04:14;;;;;;;37.78;25.92;;;;;;;-2.02;100.00;103875.53;5082728;28;20411;-76
2023/02/07 09:06:40;;;;;;;39.13;26.58;;;;;;;-1.90;100.00;103869.00;5084532;28;20020;-76
2023/02/07 09:09:06;;;;;;;36.65;25.55;;;;;;;-1.64;100.00;103873.38;5083944;28;20411;-76
2023/02/07 09:11:32;;;;;;;36.08;24.95;;;;;;;-1.29;100.00;103878.66;5083469;28;20027;-76
2023/02/07 09:13:57;;;;;;;36.28;24.42;;;;;;;-1.06;100.00;103888.75;5085042;28;20417;-76
2023/02/07 09:16:23;;;;;;;35.00;23.70;;;;;;;-0.94;100.00;103889.06;5082062;28;20112;-76
2023/02/07 09:18:48;;;;;;;35.55;23.63;;;;;;;-0.77;100.00;103885.53;5082175;28;20032;-76
2023/02/07 09:21:14;;;;;;;35.05;22.80;;;;;;;-0.69;100.00;103875.91;5084765;28;20031;-76
2023/02/07 09:23:39;;;;;;;33.13;22.30;;;;;;;-0.54;100.00;103867.94;5083218;28;20032;-88
2023/02/07 09:26:06;;;;;;;35.50;22.45;;;;;;;-0.34;100.00;103873.25;5083347;28;20032;-90
2023/02/07 09:28:32;;;;;;;35.15;22.40;;;;;;;-0.09;100.00;103863.50;5084467;28;20099;-87
2023/02/07 09:30:57;;;;;;;33.80;21.77;;;;;;;0.06;100.00;103869.25;5081892;28;20158;-82
2023/02/07 09:33:23;;;;;;;34.03;22.38;;;;;;;0.20;100.00;103863.69;5085184;28;20085;-90
2023/02/07 09:35:49;;;;;;;33.63;20.98;;;;;;;0.52;100.00;103865.81;5081531;28;20032;-88
2023/02/07 09:38:17;;;;;;;32.38;21.17;;;;;;;0.86;100.00;103867.25;5084493;28;20035;-90
2023/02/07 09:40:46;;;;;;;32.00;20.52;;;;;;;0.97;100.00;103857.81;5082505;28;20032;-90
2023/02/07 09:43:14;;;;;;;32.38;20.98;;;;;;;1.18;100.00;103860.53;5083889;28;20095;-85
2023/02/07 09:45:44;;;;;;;31.58;19.45;;;;;;;1.16;100.00;103862.09;5082756;28;20047;-88
2023/02/07 09:48:22;;;;;;;30.98;19.02;;;;;;;1.37;100.00;103855.31;5083731;28;20020;-82
2023/02/07 09:50:54;;;;;;;29.58;18.23;;;;;;;1.59;100.00;103847.72;5081820;28;20411;-87
2023/02/07 09:53:27;;;;;;;30.60;18.38;;;;;;;1.73;100.00;103844.66;5081388;28;20127;-91
2023/02/07 09:55:57;;;;;;;29.92;17.52;;;;;;;1.96;100.00;103856.19;5081407;28;20028;-88
2023/02/07 09:58:45;;;;;;;28.48;17.48;;;;;;;2.06;100.00;103845.75;5081429;28;20030;-89
2023/02/07 10:01:18;;;;;;;31.17;18.40;;;;;;;1.96;100.00;103852.66;5083556;28;20103;-78
2023/02/07 10:04:29;;;;;;;28.73;17.00;;;;;;;2.08;100.00;103848.50;5082255;28;20028;-89
2023/02/07 10:06:56;;;;;;;30.08;17.77;;;;;;;2.35;100.00;103849.97;5058487;28;20033;-82
2023/02/07 10:09:31;;;;;;;28.08;16.90;;;;;;;2.30;100.00;103846.06;5062465;28;20033;-76
2023/02/07 10:12:34;;;;;;;28.73;16.92;;;;;;;2.43;100.00;103840.19;5075466;28;20045;-89
2023/02/07 10:15:18;;;;;;;28.33;16.90;;;;;;;2.80;100.00;103838.09;5081996;28;20063;-88
2023/02/07 10:17:52;;;;;;;28.40;16.77;;;;;;;2.85;100.00;103843.69;5081928;28;20024;-77
2023/02/07 10:20:18;;;;;;;27.55;16.17;;;;;;;3.08;100.00;103841.28;5084439;28;20115;-88
2023/02/07 10:22:52;;;;;;;27.25;15.75;;;;;;;3.46;100.00;103838.28;5081493;28;20099;-86
2023/02/07 10:25:52;;;;;;;26.67;16.25;;;;;;;3.89;100.00;103840.84;5081630;28;20097;-81
2023/02/07 10:28:32;;;;;;;28.08;15.45;;;;;;;4.10;100.00;103846.84;5082847;28;20121;-77
2023/02/07 10:31:02;;;;;;;26.92;15.38;;;;;;;4.42;100.00;103840.59;5080791;28;20091;-76
2023/02/07 10:33:33;;;;;;;26.83;15.18;;;;;;;4.88;100.00;103840.59;5080499;28;20041;-77
2023/02/07 10:36:03;;;;;;;26.88;14.95;;;;;;;5.74;100.00;103832.88;5080924;28;20107;-76
2023/02/07 10:38:45;;;;;;;25.60;14.30;;;;;;;6.74;100.00;103838.94;5081290;28;20028;-77
2023/02/07 10:41:16;;;;;;;25.10;12.68;;;;;;;7.22;100.00;103837.75;5083750;28;20039;-76
2023/02/07 10:43:45;;;;;;;22.27;10.57;;;;;;;6.96;100.00;103839.59;5082329;28;20035;-77
2023/02/07 10:46:13;;;;;;;23.23;10.82;;;;;;;7.24;100.00;103840.53;5082855;28;20020;-77
2023/02/07 10:48:39;;;;;;;22.75;10.10;;;;;;;7.48;100.00;103830.66;5081879;28;20032;-77
2023/02/07 10:51:26;;;;;;;21.95;9.50;;;;;;;7.82;100.00;103833.75;5083672;28;20028;-77
2023/02/07 10:54:15;;;;;;;20.67;8.57;;;;;;;8.31;100.00;103832.31;5082301;28;20020;-77
2023/02/07 10:56:44;;;;;;;21.08;8.80;;;;;;;8.97;73.92;103831.03;5082222;28;20032;-77
2023/02/07 10:59:45;;;;;;;20.88;9.13;;;;;;;9.98;74.30;103823.47;5082896;28;20455;-77
2023/02/07 11:02:32;;;;;;;20.95;8.75;;;;;;;10.41;68.27;103821.41;5082132;28;20031;-77
2023/02/07 11:05:00;;;;;;;21.10;8.57;;;;;;;10.50;56.62;103825.31;5080872;28;20115;-77
2023/02/07 11:07:26;;;;;;;20.15;8.00;;;;;;;10.73;57.05;103824.81;5082650;28;20420;-77
2023/02/07 11:10:16;;;;;;;20.58;8.73;;;;;;;10.87;59.94;103816.66;5081202;28;20475;-76
2023/02/07 11:12:47;;;;;;;20.80;8.60;;;;;;;11.34;55.20;103826.00;5081979;28;20028;-77